sensor_id;sensor_type;location;lat;lon;timestamp;temperature;humidity
13426;DHT22;6785;57.918;12.530;2022-07-21T00:01:21;22.20;99.90
13426;DHT22;6785;57.918;12.530;2022-07-21T00:03:48;22.20;99.90
13426;DHT22;6785;57.918;12.530;2022-07-21T00:06:15;22.20;99.90
13426;DHT22;6785;57.918;12.530;2022-07-21T00:08:44;22.20;99.90
13426;DHT22;6785;57.918;12.530;2022-07-21T00:11:11;22.10;99.90
13426;DHT22;6785;57.918;12.530;2022-07-21T00:13:38;22.00;99.90
13426;DHT22;6785;57.918;12.530;2022-07-21T00:16:06;22.00;99.90
13426;DHT22;6785;57.918;12.530;2022-07-21T00:18:33;22.00;99.90
13426;DHT22;6785;57.918;12.530;2022-07-21T00:21:00;21.90;99.90
13426;DHT22;6785;57.918;12.530;2022-07-21T00:23:27;21.90;99.90
13426;DHT22;6785;57.918;12.530;2022-07-21T00:25:55;22.00;99.90
13426;DHT22;6785;57.918;12.530;2022-07-21T00:28:22;21.90;99.90
13426;DHT22;6785;57.918;12.530;2022-07-21T00:30:49;21.80;99.90
13426;DHT22;6785;57.918;12.530;2022-07-21T00:33:16;21.80;99.90
13426;DHT22;6785;57.918;12.530;2022-07-21T00:35:43;21.80;99.90
13426;DHT22;6785;57.918;12.530;2022-07-21T00:38:10;21.70;99.90
13426;DHT22;6785;57.918;12.530;2022-07-21T00:40:37;21.70;99.90
13426;DHT22;6785;57.918;12.530;2022-07-21T00:43:05;21.50;99.90
13426;DHT22;6785;57.918;12.530;2022-07-21T00:45:32;21.60;99.90
13426;DHT22;6785;57.918;12.530;2022-07-21T00:47:59;21.60;99.90
13426;DHT22;6785;57.918;12.530;2022-07-21T00:50:26;21.50;99.90
13426;DHT22;6785;57.918;12.530;2022-07-21T00:52:53;21.50;99.90
13426;DHT22;6785;57.918;12.530;2022-07-21T00:55:21;21.60;99.90
13426;DHT22;6785;57.918;12.530;2022-07-21T00:57:49;21.60;99.90
13426;DHT22;6785;57.918;12.530;2022-07-21T01:00:20;21.50;99.90
13426;DHT22;6785;57.918;12.530;2022-07-21T01:02:47;21.50;99.90
13426;DHT22;6785;57.918;12.530;2022-07-21T01:05:15;21.40;99.90
13426;DHT22;6785;57.918;12.530;2022-07-21T01:07:44;21.40;99.90
13426;DHT22;6785;57.918;12.530;2022-07-21T01:10:12;21.40;99.90
13426;DHT22;6785;57.918;12.530;2022-07-21T01:12:40;21.40;99.90
13426;DHT22;6785;57.918;12.530;2022-07-21T01:15:09;21.30;99.90
13426;DHT22;6785;57.918;12.530;2022-07-21T01:17:38;21.40;99.90
13426;DHT22;6785;57.918;12.530;2022-07-21T01:20:07;21.40;99.90
13426;DHT22;6785;57.918;12.530;2022-07-21T01:22:37;21.40;99.90
13426;DHT22;6785;57.918;12.530;2022-07-21T01:25:05;21.40;99.90
13426;DHT22;6785;57.918;12.530;2022-07-21T01:27:32;21.40;99.90
13426;DHT22;6785;57.918;12.530;2022-07-21T01:30:00;21.40;99.90
13426;DHT22;6785;57.918;12.530;2022-07-21T01:32:27;21.40;99.90
13426;DHT22;6785;57.918;12.530;2022-07-21T01:34:55;21.30;99.90
13426;DHT22;6785;57.918;12.530;2022-07-21T01:37:23;21.20;99.90
13426;DHT22;6785;57.918;12.530;2022-07-21T01:39:52;21.10;99.90
13426;DHT22;6785;57.918;12.530;2022-07-21T01:42:37;21.00;99.90
13426;DHT22;6785;57.918;12.530;2022-07-21T01:45:06;20.80;99.90
13426;DHT22;6785;57.918;12.530;2022-07-21T01:47:33;20.70;99.90
13426;DHT22;6785;57.918;12.530;2022-07-21T01:50:00;20.60;99.90
13426;DHT22;6785;57.918;12.530;2022-07-21T01:52:27;20.50;99.90
13426;DHT22;6785;57.918;12.530;2022-07-21T01:54:55;20.60;99.90
13426;DHT22;6785;57.918;12.530;2022-07-21T01:57:22;20.50;99.90
13426;DHT22;6785;57.918;12.530;2022-07-21T01:59:49;20.40;99.90
13426;DHT22;6785;57.918;12.530;2022-07-21T02:02:16;20.40;99.90
13426;DHT22;6785;57.918;12.530;2022-07-21T02:04:46;20.30;99.90
13426;DHT22;6785;57.918;12.530;2022-07-21T02:07:13;20.20;99.90
13426;DHT22;6785;57.918;12.530;2022-07-21T02:09:39;20.30;99.90
13426;DHT22;6785;57.918;12.530;2022-07-21T02:12:08;20.30;99.90
13426;DHT22;6785;57.918;12.530;2022-07-21T02:14:35;20.30;99.90
13426;DHT22;6785;57.918;12.530;2022-07-21T02:17:02;20.30;99.90
13426;DHT22;6785;57.918;12.530;2022-07-21T02:19:29;20.20;99.90
13426;DHT22;6785;57.918;12.530;2022-07-21T02:21:56;20.20;99.90
13426;DHT22;6785;57.918;12.530;2022-07-21T02:24:23;20.10;99.90
13426;DHT22;6785;57.918;12.530;2022-07-21T02:26:50;20.10;99.90
13426;DHT22;6785;57.918;12.530;2022-07-21T02:29:18;20.00;99.90
13426;DHT22;6785;57.918;12.530;2022-07-21T02:31:44;20.00;99.90
13426;DHT22;6785;57.918;12.530;2022-07-21T02:34:11;20.00;99.90
13426;DHT22;6785;57.918;12.530;2022-07-21T02:36:38;20.00;99.90
13426;DHT22;6785;57.918;12.530;2022-07-21T02:39:05;20.00;99.90
13426;DHT22;6785;57.918;12.530;2022-07-21T02:41:32;20.00;99.90
13426;DHT22;6785;57.918;12.530;2022-07-21T02:43:59;20.00;99.90
13426;DHT22;6785;57.918;12.530;2022-07-21T02:46:27;19.90;99.90
13426;DHT22;6785;57.918;12.530;2022-07-21T02:48:53;19.90;99.90
13426;DHT22;6785;57.918;12.530;2022-07-21T02:51:20;19.90;99.90
13426;DHT22;6785;57.918;12.530;2022-07-21T02:53:47;19.90;99.90
13426;DHT22;6785;57.918;12.530;2022-07-21T02:56:15;19.90;99.90
13426;DHT22;6785;57.918;12.530;2022-07-21T02:58:43;19.80;99.90
13426;DHT22;6785;57.918;12.530;2022-07-21T03:01:10;19.80;99.90
13426;DHT22;6785;57.918;12.530;2022-07-21T03:03:38;19.80;99.90
13426;DHT22;6785;57.918;12.530;2022-07-21T03:06:05;19.70;99.90
13426;DHT22;6785;57.918;12.530;2022-07-21T03:08:33;19.70;99.90
13426;DHT22;6785;57.918;12.530;2022-07-21T03:11:00;19.70;99.90
13426;DHT22;6785;57.918;12.530;2022-07-21T03:13:28;19.80;99.90
13426;DHT22;6785;57.918;12.530;2022-07-21T03:15:55;19.80;99.90
13426;DHT22;6785;57.918;12.530;2022-07-21T03:18:22;19.80;99.90
13426;DHT22;6785;57.918;12.530;2022-07-21T03:20:50;19.80;99.90
13426;DHT22;6785;57.918;12.530;2022-07-21T03:23:17;19.70;99.90
13426;DHT22;6785;57.918;12.530;2022-07-21T03:25:44;19.80;99.90
13426;DHT22;6785;57.918;12.530;2022-07-21T03:28:11;19.80;99.90
13426;DHT22;6785;57.918;12.530;2022-07-21T03:30:38;19.70;99.90
13426;DHT22;6785;57.918;12.530;2022-07-21T03:33:06;19.70;99.90
13426;DHT22;6785;57.918;12.530;2022-07-21T03:35:33;19.70;99.90
13426;DHT22;6785;57.918;12.530;2022-07-21T03:38:03;19.70;99.90
13426;DHT22;6785;57.918;12.530;2022-07-21T03:40:33;19.70;99.90
13426;DHT22;6785;57.918;12.530;2022-07-21T03:43:02;19.70;99.90
13426;DHT22;6785;57.918;12.530;2022-07-21T03:45:30;19.70;99.90
13426;DHT22;6785;57.918;12.530;2022-07-21T03:50:44;19.60;99.90
13426;DHT22;6785;57.918;12.530;2022-07-21T03:53:15;19.60;99.90
13426;DHT22;6785;57.918;12.530;2022-07-21T03:55:43;19.60;99.90
13426;DHT22;6785;57.918;12.530;2022-07-21T03:58:12;19.60;99.90
13426;DHT22;6785;57.918;12.530;2022-07-21T04:00:40;19.60;99.90
13426;DHT22;6785;57.918;12.530;2022-07-21T04:03:07;19.60;99.90
13426;DHT22;6785;57.918;12.530;2022-07-21T04:05:35;19.60;99.90
13426;DHT22;6785;57.918;12.530;2022-07-21T04:08:02;19.60;99.90
13426;DHT22;6785;57.918;12.530;2022-07-21T04:10:33;19.60;99.90
13426;DHT22;6785;57.918;12.530;2022-07-21T04:13:04;19.70;99.90
13426;DHT22;6785;57.918;12.530;2022-07-21T04:15:31;19.70;99.90
13426;DHT22;6785;57.918;12.530;2022-07-21T04:17:58;19.80;99.90
13426;DHT22;6785;57.918;12.530;2022-07-21T04:20:25;19.80;99.90
13426;DHT22;6785;57.918;12.530;2022-07-21T04:22:53;19.80;99.90
13426;DHT22;6785;57.918;12.530;2022-07-21T04:25:20;19.90;99.90
13426;DHT22;6785;57.918;12.530;2022-07-21T04:27:49;19.90;99.90
13426;DHT22;6785;57.918;12.530;2022-07-21T04:30:19;20.00;99.90
13426;DHT22;6785;57.918;12.530;2022-07-21T04:32:47;20.10;99.90
13426;DHT22;6785;57.918;12.530;2022-07-21T04:35:14;20.10;99.90
13426;DHT22;6785;57.918;12.530;2022-07-21T04:37:41;20.20;99.90
13426;DHT22;6785;57.918;12.530;2022-07-21T04:40:10;20.30;99.90
13426;DHT22;6785;57.918;12.530;2022-07-21T04:42:37;20.40;99.90
13426;DHT22;6785;57.918;12.530;2022-07-21T04:45:07;20.40;99.90
13426;DHT22;6785;57.918;12.530;2022-07-21T04:47:42;20.40;99.90
13426;DHT22;6785;57.918;12.530;2022-07-21T04:50:09;20.60;99.90
13426;DHT22;6785;57.918;12.530;2022-07-21T04:52:36;20.60;99.90
13426;DHT22;6785;57.918;12.530;2022-07-21T04:55:03;20.70;99.90
13426;DHT22;6785;57.918;12.530;2022-07-21T04:57:30;20.70;99.90
13426;DHT22;6785;57.918;12.530;2022-07-21T04:59:57;20.80;99.90
13426;DHT22;6785;57.918;12.530;2022-07-21T05:02:25;20.90;99.90
13426;DHT22;6785;57.918;12.530;2022-07-21T05:04:52;20.90;99.90
13426;DHT22;6785;57.918;12.530;2022-07-21T05:07:19;21.00;99.90
13426;DHT22;6785;57.918;12.530;2022-07-21T05:09:46;21.10;99.90
13426;DHT22;6785;57.918;12.530;2022-07-21T05:12:13;21.10;99.90
13426;DHT22;6785;57.918;12.530;2022-07-21T05:14:40;21.20;99.90
13426;DHT22;6785;57.918;12.530;2022-07-21T05:17:07;21.30;99.90
13426;DHT22;6785;57.918;12.530;2022-07-21T05:19:36;21.40;99.90
13426;DHT22;6785;57.918;12.530;2022-07-21T05:22:02;21.40;99.90
13426;DHT22;6785;57.918;12.530;2022-07-21T05:24:29;21.50;99.90
13426;DHT22;6785;57.918;12.530;2022-07-21T05:26:56;21.60;99.90
13426;DHT22;6785;57.918;12.530;2022-07-21T05:29:23;21.70;99.90
13426;DHT22;6785;57.918;12.530;2022-07-21T05:31:50;21.80;99.90
13426;DHT22;6785;57.918;12.530;2022-07-21T05:34:17;21.90;99.90
13426;DHT22;6785;57.918;12.530;2022-07-21T05:36:45;22.00;99.90
13426;DHT22;6785;57.918;12.530;2022-07-21T05:39:12;22.10;99.90
13426;DHT22;6785;57.918;12.530;2022-07-21T05:41:39;22.10;99.90
13426;DHT22;6785;57.918;12.530;2022-07-21T05:44:06;22.00;99.90
13426;DHT22;6785;57.918;12.530;2022-07-21T05:46:32;22.00;99.90
13426;DHT22;6785;57.918;12.530;2022-07-21T05:49:00;22.10;99.90
13426;DHT22;6785;57.918;12.530;2022-07-21T05:51:27;22.30;99.90
13426;DHT22;6785;57.918;12.530;2022-07-21T05:53:55;22.40;99.90
13426;DHT22;6785;57.918;12.530;2022-07-21T05:56:22;22.50;99.90
13426;DHT22;6785;57.918;12.530;2022-07-21T05:58:49;22.60;99.90
13426;DHT22;6785;57.918;12.530;2022-07-21T06:01:16;22.60;99.90
13426;DHT22;6785;57.918;12.530;2022-07-21T06:03:45;22.70;99.90
13426;DHT22;6785;57.918;12.530;2022-07-21T06:06:13;22.70;99.90
13426;DHT22;6785;57.918;12.530;2022-07-21T06:08:42;22.80;99.90
13426;DHT22;6785;57.918;12.530;2022-07-21T06:11:15;22.90;99.90
13426;DHT22;6785;57.918;12.530;2022-07-21T06:13:43;22.90;99.90
13426;DHT22;6785;57.918;12.530;2022-07-21T06:16:11;23.00;99.90
13426;DHT22;6785;57.918;12.530;2022-07-21T06:18:38;23.10;99.90
13426;DHT22;6785;57.918;12.530;2022-07-21T06:21:05;23.20;99.90
13426;DHT22;6785;57.918;12.530;2022-07-21T06:23:32;23.20;99.90
13426;DHT22;6785;57.918;12.530;2022-07-21T06:25:59;23.20;99.90
13426;DHT22;6785;57.918;12.530;2022-07-21T06:28:29;23.40;99.90
13426;DHT22;6785;57.918;12.530;2022-07-21T06:30:56;23.50;99.90
13426;DHT22;6785;57.918;12.530;2022-07-21T06:33:23;23.50;99.90
13426;DHT22;6785;57.918;12.530;2022-07-21T06:35:49;23.60;99.90
13426;DHT22;6785;57.918;12.530;2022-07-21T06:38:17;23.70;99.90
13426;DHT22;6785;57.918;12.530;2022-07-21T06:40:44;23.80;99.90
13426;DHT22;6785;57.918;12.530;2022-07-21T06:43:11;23.80;99.90
13426;DHT22;6785;57.918;12.530;2022-07-21T06:45:39;24.00;99.90
13426;DHT22;6785;57.918;12.530;2022-07-21T06:48:08;24.30;99.90
13426;DHT22;6785;57.918;12.530;2022-07-21T06:50:36;24.50;99.90
13426;DHT22;6785;57.918;12.530;2022-07-21T06:53:04;24.80;99.90
13426;DHT22;6785;57.918;12.530;2022-07-21T06:55:31;24.90;99.90
13426;DHT22;6785;57.918;12.530;2022-07-21T06:58:00;25.10;99.90
13426;DHT22;6785;57.918;12.530;2022-07-21T07:00:34;25.40;99.90
13426;DHT22;6785;57.918;12.530;2022-07-21T07:03:03;25.20;99.90
13426;DHT22;6785;57.918;12.530;2022-07-21T07:05:29;25.30;99.90
13426;DHT22;6785;57.918;12.530;2022-07-21T07:07:56;25.50;99.90
13426;DHT22;6785;57.918;12.530;2022-07-21T07:10:23;25.60;99.90
13426;DHT22;6785;57.918;12.530;2022-07-21T07:12:50;25.50;99.90
13426;DHT22;6785;57.918;12.530;2022-07-21T07:15:17;25.50;99.90
13426;DHT22;6785;57.918;12.530;2022-07-21T07:17:44;25.80;99.90
13426;DHT22;6785;57.918;12.530;2022-07-21T07:20:13;26.30;99.90
13426;DHT22;6785;57.918;12.530;2022-07-21T07:22:40;26.50;99.90
13426;DHT22;6785;57.918;12.530;2022-07-21T07:25:08;26.70;99.90
13426;DHT22;6785;57.918;12.530;2022-07-21T07:27:35;26.60;99.90
13426;DHT22;6785;57.918;12.530;2022-07-21T07:30:03;26.70;99.90
13426;DHT22;6785;57.918;12.530;2022-07-21T07:32:30;26.80;99.90
13426;DHT22;6785;57.918;12.530;2022-07-21T07:34:57;26.80;99.90
13426;DHT22;6785;57.918;12.530;2022-07-21T07:37:25;27.10;99.90
13426;DHT22;6785;57.918;12.530;2022-07-21T07:39:52;27.40;99.90
13426;DHT22;6785;57.918;12.530;2022-07-21T07:42:19;27.50;99.90
13426;DHT22;6785;57.918;12.530;2022-07-21T07:44:45;27.70;99.90
13426;DHT22;6785;57.918;12.530;2022-07-21T07:47:13;27.90;99.90
13426;DHT22;6785;57.918;12.530;2022-07-21T07:49:40;27.70;99.90
13426;DHT22;6785;57.918;12.530;2022-07-21T07:52:07;28.00;99.90
13426;DHT22;6785;57.918;12.530;2022-07-21T07:54:35;28.20;99.90
13426;DHT22;6785;57.918;12.530;2022-07-21T07:57:02;28.50;99.90
13426;DHT22;6785;57.918;12.530;2022-07-21T07:59:29;28.80;99.90
13426;DHT22;6785;57.918;12.530;2022-07-21T08:01:56;28.70;99.90
13426;DHT22;6785;57.918;12.530;2022-07-21T08:04:23;28.80;99.90
13426;DHT22;6785;57.918;12.530;2022-07-21T08:06:50;28.80;99.90
13426;DHT22;6785;57.918;12.530;2022-07-21T08:09:17;28.70;99.90
13426;DHT22;6785;57.918;12.530;2022-07-21T08:11:46;28.60;99.90
13426;DHT22;6785;57.918;12.530;2022-07-21T08:14:13;28.80;99.90
13426;DHT22;6785;57.918;12.530;2022-07-21T08:16:41;28.90;99.90
13426;DHT22;6785;57.918;12.530;2022-07-21T08:19:08;28.80;99.90
13426;DHT22;6785;57.918;12.530;2022-07-21T08:21:35;28.70;99.90
13426;DHT22;6785;57.918;12.530;2022-07-21T08:24:02;28.70;99.90
13426;DHT22;6785;57.918;12.530;2022-07-21T08:26:29;28.80;99.90
13426;DHT22;6785;57.918;12.530;2022-07-21T08:28:58;28.90;99.90
13426;DHT22;6785;57.918;12.530;2022-07-21T08:31:25;29.10;99.90
13426;DHT22;6785;57.918;12.530;2022-07-21T08:33:52;29.10;99.90
13426;DHT22;6785;57.918;12.530;2022-07-21T08:36:19;29.20;99.90
13426;DHT22;6785;57.918;12.530;2022-07-21T08:38:47;29.10;99.90
13426;DHT22;6785;57.918;12.530;2022-07-21T08:41:14;29.00;99.90
13426;DHT22;6785;57.918;12.530;2022-07-21T08:43:41;28.90;99.90
13426;DHT22;6785;57.918;12.530;2022-07-21T08:46:09;28.80;99.90
13426;DHT22;6785;57.918;12.530;2022-07-21T08:48:36;28.80;99.90
13426;DHT22;6785;57.918;12.530;2022-07-21T08:51:04;28.80;99.90
13426;DHT22;6785;57.918;12.530;2022-07-21T08:53:31;28.80;99.90
13426;DHT22;6785;57.918;12.530;2022-07-21T08:55:58;28.90;99.90
13426;DHT22;6785;57.918;12.530;2022-07-21T08:58:26;29.10;99.90
13426;DHT22;6785;57.918;12.530;2022-07-21T09:00:53;29.20;99.90
13426;DHT22;6785;57.918;12.530;2022-07-21T09:03:23;29.10;99.90
13426;DHT22;6785;57.918;12.530;2022-07-21T09:06:03;29.10;99.90
13426;DHT22;6785;57.918;12.530;2022-07-21T09:08:34;29.10;99.90
13426;DHT22;6785;57.918;12.530;2022-07-21T09:11:12;29.10;99.90
13426;DHT22;6785;57.918;12.530;2022-07-21T09:13:40;29.20;99.90
13426;DHT22;6785;57.918;12.530;2022-07-21T09:16:08;29.20;99.90
13426;DHT22;6785;57.918;12.530;2022-07-21T09:18:47;29.20;99.90
13426;DHT22;6785;57.918;12.530;2022-07-21T09:21:15;29.20;99.90
13426;DHT22;6785;57.918;12.530;2022-07-21T09:23:42;29.20;99.90
13426;DHT22;6785;57.918;12.530;2022-07-21T09:26:09;29.30;99.90
13426;DHT22;6785;57.918;12.530;2022-07-21T09:28:37;29.20;99.90
13426;DHT22;6785;57.918;12.530;2022-07-21T09:31:05;28.70;99.90
13426;DHT22;6785;57.918;12.530;2022-07-21T09:33:34;28.50;99.90
13426;DHT22;6785;57.918;12.530;2022-07-21T09:36:05;28.50;99.90
13426;DHT22;6785;57.918;12.530;2022-07-21T09:38:35;28.80;99.90
13426;DHT22;6785;57.918;12.530;2022-07-21T09:41:12;28.80;99.90
13426;DHT22;6785;57.918;12.530;2022-07-21T09:43:41;28.90;99.90
13426;DHT22;6785;57.918;12.530;2022-07-21T09:46:19;29.00;99.90
13426;DHT22;6785;57.918;12.530;2022-07-21T09:48:47;29.10;99.90
13426;DHT22;6785;57.918;12.530;2022-07-21T09:51:33;29.20;99.90
13426;DHT22;6785;57.918;12.530;2022-07-21T09:54:02;29.20;99.90
13426;DHT22;6785;57.918;12.530;2022-07-21T09:56:32;29.30;99.90
13426;DHT22;6785;57.918;12.530;2022-07-21T09:59:00;29.50;99.90
13426;DHT22;6785;57.918;12.530;2022-07-21T10:01:28;29.60;99.90
13426;DHT22;6785;57.918;12.530;2022-07-21T10:03:57;29.70;99.90
13426;DHT22;6785;57.918;12.530;2022-07-21T10:06:25;29.80;99.90
13426;DHT22;6785;57.918;12.530;2022-07-21T10:08:54;30.00;99.90
13426;DHT22;6785;57.918;12.530;2022-07-21T10:11:22;30.00;99.90
13426;DHT22;6785;57.918;12.530;2022-07-21T10:13:49;30.20;99.90
13426;DHT22;6785;57.918;12.530;2022-07-21T10:16:16;30.20;99.90
13426;DHT22;6785;57.918;12.530;2022-07-21T10:18:52;30.40;99.90
13426;DHT22;6785;57.918;12.530;2022-07-21T10:21:29;30.20;99.90
13426;DHT22;6785;57.918;12.530;2022-07-21T10:23:58;30.00;99.90
13426;DHT22;6785;57.918;12.530;2022-07-21T10:26:25;29.90;99.90
13426;DHT22;6785;57.918;12.530;2022-07-21T10:28:52;29.90;99.90
13426;DHT22;6785;57.918;12.530;2022-07-21T10:31:21;29.90;99.90
13426;DHT22;6785;57.918;12.530;2022-07-21T10:33:56;30.00;99.90
13426;DHT22;6785;57.918;12.530;2022-07-21T10:36:43;30.10;99.90
13426;DHT22;6785;57.918;12.530;2022-07-21T10:39:18;30.30;99.90
13426;DHT22;6785;57.918;12.530;2022-07-21T10:41:47;30.20;99.90
13426;DHT22;6785;57.918;12.530;2022-07-21T10:44:39;29.90;99.90
13426;DHT22;6785;57.918;12.530;2022-07-21T10:47:07;29.90;99.90
13426;DHT22;6785;57.918;12.530;2022-07-21T10:49:49;30.10;99.90
13426;DHT22;6785;57.918;12.530;2022-07-21T10:52:57;30.40;99.90
13426;DHT22;6785;57.918;12.530;2022-07-21T10:55:27;30.30;99.90
13426;DHT22;6785;57.918;12.530;2022-07-21T10:58:12;30.10;99.90
13426;DHT22;6785;57.918;12.530;2022-07-21T11:00:47;30.10;99.90
13426;DHT22;6785;57.918;12.530;2022-07-21T11:03:21;30.10;99.90
13426;DHT22;6785;57.918;12.530;2022-07-21T11:06:17;30.10;99.90
13426;DHT22;6785;57.918;12.530;2022-07-21T11:08:46;30.10;99.90
13426;DHT22;6785;57.918;12.530;2022-07-21T11:11:15;30.10;99.90
13426;DHT22;6785;57.918;12.530;2022-07-21T11:14:00;30.30;99.90
13426;DHT22;6785;57.918;12.530;2022-07-21T11:19:44;30.50;99.90
13426;DHT22;6785;57.918;12.530;2022-07-21T11:22:15;30.70;99.90
13426;DHT22;6785;57.918;12.530;2022-07-21T11:24:45;30.70;99.90
13426;DHT22;6785;57.918;12.530;2022-07-21T11:27:15;30.80;99.90
13426;DHT22;6785;57.918;12.530;2022-07-21T11:29:43;30.80;99.90
13426;DHT22;6785;57.918;12.530;2022-07-21T11:32:12;30.80;99.90
13426;DHT22;6785;57.918;12.530;2022-07-21T11:34:42;30.90;99.90
13426;DHT22;6785;57.918;12.530;2022-07-21T11:37:11;30.90;99.90
13426;DHT22;6785;57.918;12.530;2022-07-21T11:39:38;30.80;99.90
13426;DHT22;6785;57.918;12.530;2022-07-21T11:42:09;30.90;99.90
13426;DHT22;6785;57.918;12.530;2022-07-21T11:44:37;31.00;99.90
13426;DHT22;6785;57.918;12.530;2022-07-21T11:47:05;31.10;99.90
13426;DHT22;6785;57.918;12.530;2022-07-21T11:49:33;31.10;99.90
13426;DHT22;6785;57.918;12.530;2022-07-21T11:52:02;31.20;99.90
13426;DHT22;6785;57.918;12.530;2022-07-21T11:54:32;31.20;99.90
13426;DHT22;6785;57.918;12.530;2022-07-21T11:57:03;31.30;99.90
13426;DHT22;6785;57.918;12.530;2022-07-21T11:59:31;31.40;99.90
13426;DHT22;6785;57.918;12.530;2022-07-21T12:02:02;31.50;99.90
13426;DHT22;6785;57.918;12.530;2022-07-21T12:04:38;31.50;99.90
13426;DHT22;6785;57.918;12.530;2022-07-21T12:07:11;31.60;99.90
13426;DHT22;6785;57.918;12.530;2022-07-21T12:09:39;31.50;99.90
13426;DHT22;6785;57.918;12.530;2022-07-21T12:12:07;31.20;99.90
13426;DHT22;6785;57.918;12.530;2022-07-21T12:14:42;31.10;99.90
13426;DHT22;6785;57.918;12.530;2022-07-21T12:17:11;31.40;99.90
13426;DHT22;6785;57.918;12.530;2022-07-21T12:19:39;31.60;99.90
13426;DHT22;6785;57.918;12.530;2022-07-21T12:22:06;31.70;99.90
13426;DHT22;6785;57.918;12.530;2022-07-21T12:24:51;31.70;99.90
13426;DHT22;6785;57.918;12.530;2022-07-21T12:27:18;31.70;99.90
13426;DHT22;6785;57.918;12.530;2022-07-21T12:29:45;31.70;99.90
13426;DHT22;6785;57.918;12.530;2022-07-21T12:32:20;31.70;99.90
13426;DHT22;6785;57.918;12.530;2022-07-21T12:35:01;31.60;99.90
13426;DHT22;6785;57.918;12.530;2022-07-21T12:37:56;31.60;99.90
13426;DHT22;6785;57.918;12.530;2022-07-21T12:40:24;31.50;99.90
13426;DHT22;6785;57.918;12.530;2022-07-21T12:43:03;31.60;99.90
13426;DHT22;6785;57.918;12.530;2022-07-21T12:45:30;31.50;99.90
13426;DHT22;6785;57.918;12.530;2022-07-21T12:48:06;31.20;99.90
13426;DHT22;6785;57.918;12.530;2022-07-21T12:50:33;31.10;99.90
13426;DHT22;6785;57.918;12.530;2022-07-21T12:53:00;31.10;99.90
13426;DHT22;6785;57.918;12.530;2022-07-21T12:55:28;31.20;99.90
13426;DHT22;6785;57.918;12.530;2022-07-21T12:57:55;31.10;99.90
13426;DHT22;6785;57.918;12.530;2022-07-21T13:00:22;31.20;99.90
13426;DHT22;6785;57.918;12.530;2022-07-21T13:02:52;31.20;99.90
13426;DHT22;6785;57.918;12.530;2022-07-21T13:05:21;31.20;99.90
13426;DHT22;6785;57.918;12.530;2022-07-21T13:07:48;31.10;99.90
13426;DHT22;6785;57.918;12.530;2022-07-21T13:10:15;31.10;99.90
13426;DHT22;6785;57.918;12.530;2022-07-21T13:12:42;31.00;99.90
13426;DHT22;6785;57.918;12.530;2022-07-21T13:15:10;30.80;99.90
13426;DHT22;6785;57.918;12.530;2022-07-21T13:17:37;30.80;99.90
13426;DHT22;6785;57.918;12.530;2022-07-21T13:20:05;30.70;99.90
13426;DHT22;6785;57.918;12.530;2022-07-21T13:22:33;30.60;99.90
13426;DHT22;6785;57.918;12.530;2022-07-21T13:25:00;30.70;99.90
13426;DHT22;6785;57.918;12.530;2022-07-21T13:27:27;30.80;99.90
13426;DHT22;6785;57.918;12.530;2022-07-21T13:29:54;30.80;99.90
13426;DHT22;6785;57.918;12.530;2022-07-21T13:32:21;30.70;99.90
13426;DHT22;6785;57.918;12.530;2022-07-21T13:34:48;30.60;99.90
13426;DHT22;6785;57.918;12.530;2022-07-21T13:37:15;30.60;99.90
13426;DHT22;6785;57.918;12.530;2022-07-21T13:39:43;30.70;99.90
13426;DHT22;6785;57.918;12.530;2022-07-21T13:42:10;30.70;99.90
13426;DHT22;6785;57.918;12.530;2022-07-21T13:44:37;30.80;99.90
13426;DHT22;6785;57.918;12.530;2022-07-21T13:47:03;30.80;99.90
13426;DHT22;6785;57.918;12.530;2022-07-21T13:49:30;31.00;99.90
13426;DHT22;6785;57.918;12.530;2022-07-21T13:51:57;31.20;99.90
13426;DHT22;6785;57.918;12.530;2022-07-21T13:54:24;31.60;99.90
13426;DHT22;6785;57.918;12.530;2022-07-21T13:56:52;31.70;99.90
13426;DHT22;6785;57.918;12.530;2022-07-21T13:59:19;31.90;99.90
13426;DHT22;6785;57.918;12.530;2022-07-21T14:01:46;32.10;99.90
13426;DHT22;6785;57.918;12.530;2022-07-21T14:04:12;32.20;99.90
13426;DHT22;6785;57.918;12.530;2022-07-21T14:06:39;32.20;99.90
13426;DHT22;6785;57.918;12.530;2022-07-21T14:09:06;32.10;99.90
13426;DHT22;6785;57.918;12.530;2022-07-21T14:11:33;31.90;99.90
13426;DHT22;6785;57.918;12.530;2022-07-21T14:14:02;31.80;99.90
13426;DHT22;6785;57.918;12.530;2022-07-21T14:16:29;31.90;99.90
13426;DHT22;6785;57.918;12.530;2022-07-21T14:18:56;31.60;99.90
13426;DHT22;6785;57.918;12.530;2022-07-21T14:21:23;31.40;99.90
13426;DHT22;6785;57.918;12.530;2022-07-21T14:23:50;31.40;99.90
13426;DHT22;6785;57.918;12.530;2022-07-21T14:26:37;31.60;99.90
13426;DHT22;6785;57.918;12.530;2022-07-21T14:29:05;32.00;99.90
13426;DHT22;6785;57.918;12.530;2022-07-21T14:31:32;32.30;99.90
13426;DHT22;6785;57.918;12.530;2022-07-21T14:33:59;32.50;99.80
13426;DHT22;6785;57.918;12.530;2022-07-21T14:36:26;32.70;99.90
13426;DHT22;6785;57.918;12.530;2022-07-21T14:38:53;32.60;99.90
13426;DHT22;6785;57.918;12.530;2022-07-21T14:41:20;32.60;99.90
13426;DHT22;6785;57.918;12.530;2022-07-21T14:43:47;32.50;99.90
13426;DHT22;6785;57.918;12.530;2022-07-21T14:46:16;32.20;99.90
13426;DHT22;6785;57.918;12.530;2022-07-21T14:48:43;32.00;99.90
13426;DHT22;6785;57.918;12.530;2022-07-21T14:51:10;31.60;99.90
13426;DHT22;6785;57.918;12.530;2022-07-21T14:53:37;31.40;99.90
13426;DHT22;6785;57.918;12.530;2022-07-21T14:56:04;31.20;99.90
13426;DHT22;6785;57.918;12.530;2022-07-21T14:58:31;31.20;99.90
13426;DHT22;6785;57.918;12.530;2022-07-21T15:00:58;31.20;99.90
13426;DHT22;6785;57.918;12.530;2022-07-21T15:03:26;31.10;99.90
13426;DHT22;6785;57.918;12.530;2022-07-21T15:05:53;31.10;99.90
13426;DHT22;6785;57.918;12.530;2022-07-21T15:08:20;31.00;99.90
13426;DHT22;6785;57.918;12.530;2022-07-21T15:10:47;30.80;99.90
13426;DHT22;6785;57.918;12.530;2022-07-21T15:13:14;30.90;99.90
13426;DHT22;6785;57.918;12.530;2022-07-21T15:15:41;30.70;99.90
13426;DHT22;6785;57.918;12.530;2022-07-21T15:18:09;30.60;99.90
13426;DHT22;6785;57.918;12.530;2022-07-21T15:20:40;30.60;99.90
13426;DHT22;6785;57.918;12.530;2022-07-21T15:23:06;30.30;99.90
13426;DHT22;6785;57.918;12.530;2022-07-21T15:25:33;30.10;99.90
13426;DHT22;6785;57.918;12.530;2022-07-21T15:28:00;30.00;99.90
13426;DHT22;6785;57.918;12.530;2022-07-21T15:30:27;29.90;99.90
13426;DHT22;6785;57.918;12.530;2022-07-21T15:32:54;30.00;99.90
13426;DHT22;6785;57.918;12.530;2022-07-21T15:35:21;30.00;99.90
13426;DHT22;6785;57.918;12.530;2022-07-21T15:37:49;30.10;99.90
13426;DHT22;6785;57.918;12.530;2022-07-21T15:40:16;30.00;99.90
13426;DHT22;6785;57.918;12.530;2022-07-21T15:42:43;30.10;99.90
13426;DHT22;6785;57.918;12.530;2022-07-21T15:45:10;30.10;99.90